sensor_id;sensor_type;location;lat;lon;timestamp;temperature;humidity
780;DHT22;373;49.342;8.146;2023-03-01T00:01:31;2.00;99.90
780;DHT22;373;49.342;8.146;2023-03-01T00:03:59;2.00;99.90
780;DHT22;373;49.342;8.146;2023-03-01T00:06:26;2.00;99.90
780;DHT22;373;49.342;8.146;2023-03-01T00:08:54;1.90;99.90
780;DHT22;373;49.342;8.146;2023-03-01T00:11:22;2.00;99.90
780;DHT22;373;49.342;8.146;2023-03-01T00:13:52;2.00;99.90
780;DHT22;373;49.342;8.146;2023-03-01T00:16:24;2.10;99.90
780;DHT22;373;49.342;8.146;2023-03-01T00:18:51;2.00;99.90
780;DHT22;373;49.342;8.146;2023-03-01T00:21:20;1.80;99.90
780;DHT22;373;49.342;8.146;2023-03-01T00:23:47;1.80;99.90
780;DHT22;373;49.342;8.146;2023-03-01T00:26:16;1.70;99.90
780;DHT22;373;49.342;8.146;2023-03-01T00:28:44;1.90;99.90
780;DHT22;373;49.342;8.146;2023-03-01T00:31:14;1.90;99.90
780;DHT22;373;49.342;8.146;2023-03-01T00:33:43;1.80;99.90
780;DHT22;373;49.342;8.146;2023-03-01T00:36:12;1.80;99.90
780;DHT22;373;49.342;8.146;2023-03-01T00:38:40;1.80;99.90
780;DHT22;373;49.342;8.146;2023-03-01T00:41:09;1.80;99.90
780;DHT22;373;49.342;8.146;2023-03-01T00:43:37;1.90;99.90
780;DHT22;373;49.342;8.146;2023-03-01T00:46:05;1.80;99.90
780;DHT22;373;49.342;8.146;2023-03-01T00:48:36;1.80;99.90
780;DHT22;373;49.342;8.146;2023-03-01T00:51:07;1.80;99.90
780;DHT22;373;49.342;8.146;2023-03-01T00:53:35;1.80;99.90
780;DHT22;373;49.342;8.146;2023-03-01T00:56:04;1.70;99.90
780;DHT22;373;49.342;8.146;2023-03-01T00:58:31;1.70;99.90
780;DHT22;373;49.342;8.146;2023-03-01T01:00:58;1.70;99.90
780;DHT22;373;49.342;8.146;2023-03-01T01:03:26;1.70;99.90
780;DHT22;373;49.342;8.146;2023-03-01T01:05:54;1.70;99.90
780;DHT22;373;49.342;8.146;2023-03-01T01:08:22;1.60;99.90
780;DHT22;373;49.342;8.146;2023-03-01T01:10:49;1.50;99.90
780;DHT22;373;49.342;8.146;2023-03-01T01:13:16;1.50;99.90
780;DHT22;373;49.342;8.146;2023-03-01T01:15:43;1.50;99.90
780;DHT22;373;49.342;8.146;2023-03-01T01:18:10;1.40;99.90
780;DHT22;373;49.342;8.146;2023-03-01T01:20:37;1.40;99.90
780;DHT22;373;49.342;8.146;2023-03-01T01:23:06;1.30;99.90
780;DHT22;373;49.342;8.146;2023-03-01T01:25:35;1.30;1.00
780;DHT22;373;49.342;8.146;2023-03-01T01:28:03;1.30;99.90
780;DHT22;373;49.342;8.146;2023-03-01T01:30:30;1.30;99.90
780;DHT22;373;49.342;8.146;2023-03-01T01:32:57;1.40;99.90
780;DHT22;373;49.342;8.146;2023-03-01T01:35:24;1.40;99.90
780;DHT22;373;49.342;8.146;2023-03-01T01:37:51;1.40;1.00
780;DHT22;373;49.342;8.146;2023-03-01T01:40:19;1.50;99.90
780;DHT22;373;49.342;8.146;2023-03-01T01:42:47;1.50;99.90
780;DHT22;373;49.342;8.146;2023-03-01T01:45:30;1.40;99.90
780;DHT22;373;49.342;8.146;2023-03-01T01:48:01;1.50;99.90
780;DHT22;373;49.342;8.146;2023-03-01T01:50:30;1.40;1.00
780;DHT22;373;49.342;8.146;2023-03-01T01:53:06;1.40;99.90
780;DHT22;373;49.342;8.146;2023-03-01T01:55:41;1.30;99.90
780;DHT22;373;49.342;8.146;2023-03-01T01:58:11;1.50;99.90
780;DHT22;373;49.342;8.146;2023-03-01T02:00:40;1.70;99.90
780;DHT22;373;49.342;8.146;2023-03-01T02:03:10;1.50;99.90
780;DHT22;373;49.342;8.146;2023-03-01T02:05:42;1.50;99.90
780;DHT22;373;49.342;8.146;2023-03-01T02:08:12;1.60;1.00
780;DHT22;373;49.342;8.146;2023-03-01T02:10:42;1.60;99.90
780;DHT22;373;49.342;8.146;2023-03-01T02:13:09;1.50;99.90
780;DHT22;373;49.342;8.146;2023-03-01T02:15:38;1.50;99.90
780;DHT22;373;49.342;8.146;2023-03-01T02:18:06;1.40;99.90
780;DHT22;373;49.342;8.146;2023-03-01T02:20:40;1.50;99.90
780;DHT22;373;49.342;8.146;2023-03-01T02:23:11;1.50;1.00
780;DHT22;373;49.342;8.146;2023-03-01T02:25:45;1.60;99.90
780;DHT22;373;49.342;8.146;2023-03-01T02:28:30;1.40;99.90
780;DHT22;373;49.342;8.146;2023-03-01T02:30:57;1.40;99.90
780;DHT22;373;49.342;8.146;2023-03-01T02:33:43;1.50;1.00
780;DHT22;373;49.342;8.146;2023-03-01T02:36:15;1.50;1.00
780;DHT22;373;49.342;8.146;2023-03-01T02:38:44;1.70;1.00
780;DHT22;373;49.342;8.146;2023-03-01T02:41:15;1.50;1.00
780;DHT22;373;49.342;8.146;2023-03-01T02:43:44;1.50;99.90
780;DHT22;373;49.342;8.146;2023-03-01T02:46:15;1.50;99.90
780;DHT22;373;49.342;8.146;2023-03-01T02:48:45;1.60;99.90
780;DHT22;373;49.342;8.146;2023-03-01T02:51:22;1.50;1.00
780;DHT22;373;49.342;8.146;2023-03-01T02:53:58;1.60;99.90
780;DHT22;373;49.342;8.146;2023-03-01T02:56:27;1.50;99.90
780;DHT22;373;49.342;8.146;2023-03-01T02:58:57;1.30;1.00
780;DHT22;373;49.342;8.146;2023-03-01T03:01:27;1.20;1.00
780;DHT22;373;49.342;8.146;2023-03-01T03:04:07;1.20;1.00
780;DHT22;373;49.342;8.146;2023-03-01T03:06:35;1.30;1.00
780;DHT22;373;49.342;8.146;2023-03-01T03:09:03;1.40;1.00
780;DHT22;373;49.342;8.146;2023-03-01T03:11:30;1.50;1.00
780;DHT22;373;49.342;8.146;2023-03-01T03:13:59;1.60;1.00
780;DHT22;373;49.342;8.146;2023-03-01T03:16:28;1.60;99.90
780;DHT22;373;49.342;8.146;2023-03-01T03:18:55;1.60;1.00
780;DHT22;373;49.342;8.146;2023-03-01T03:21:30;1.60;1.00
780;DHT22;373;49.342;8.146;2023-03-01T03:23:57;1.60;99.90
780;DHT22;373;49.342;8.146;2023-03-01T03:26:24;1.50;99.90
780;DHT22;373;49.342;8.146;2023-03-01T03:28:51;1.40;1.00
780;DHT22;373;49.342;8.146;2023-03-01T03:31:20;1.40;1.00
780;DHT22;373;49.342;8.146;2023-03-01T03:33:47;1.50;1.00
780;DHT22;373;49.342;8.146;2023-03-01T03:36:15;1.40;1.00
780;DHT22;373;49.342;8.146;2023-03-01T03:38:43;1.50;1.00
780;DHT22;373;49.342;8.146;2023-03-01T03:41:12;1.40;99.90
780;DHT22;373;49.342;8.146;2023-03-01T03:43:40;1.40;1.00
780;DHT22;373;49.342;8.146;2023-03-01T03:46:09;1.30;1.00
780;DHT22;373;49.342;8.146;2023-03-01T03:48:42;1.40;1.00
780;DHT22;373;49.342;8.146;2023-03-01T03:51:10;1.30;1.00
780;DHT22;373;49.342;8.146;2023-03-01T03:53:38;1.30;1.00
780;DHT22;373;49.342;8.146;2023-03-01T03:56:06;1.30;1.00
780;DHT22;373;49.342;8.146;2023-03-01T03:58:33;1.30;1.00
780;DHT22;373;49.342;8.146;2023-03-01T04:01:00;1.50;1.00
780;DHT22;373;49.342;8.146;2023-03-01T04:03:28;1.30;1.00
780;DHT22;373;49.342;8.146;2023-03-01T04:05:59;1.30;1.00
780;DHT22;373;49.342;8.146;2023-03-01T04:08:27;1.30;1.00
780;DHT22;373;49.342;8.146;2023-03-01T04:10:57;1.10;1.00
780;DHT22;373;49.342;8.146;2023-03-01T04:13:25;1.10;1.00
780;DHT22;373;49.342;8.146;2023-03-01T04:15:53;1.20;1.00
780;DHT22;373;49.342;8.146;2023-03-01T04:18:21;1.00;1.00
780;DHT22;373;49.342;8.146;2023-03-01T04:20:50;1.00;1.00
780;DHT22;373;49.342;8.146;2023-03-01T04:23:22;1.10;1.00
780;DHT22;373;49.342;8.146;2023-03-01T04:25:50;1.10;1.00
780;DHT22;373;49.342;8.146;2023-03-01T04:28:21;1.20;1.00
780;DHT22;373;49.342;8.146;2023-03-01T04:30:50;1.20;1.00
780;DHT22;373;49.342;8.146;2023-03-01T04:33:18;1.10;1.00
780;DHT22;373;49.342;8.146;2023-03-01T04:35:46;1.00;1.00
780;DHT22;373;49.342;8.146;2023-03-01T04:38:15;1.10;1.00
780;DHT22;373;49.342;8.146;2023-03-01T04:40:43;1.00;1.00
780;DHT22;373;49.342;8.146;2023-03-01T04:43:12;1.10;1.00
780;DHT22;373;49.342;8.146;2023-03-01T04:45:40;1.10;1.00
780;DHT22;373;49.342;8.146;2023-03-01T04:48:07;1.10;1.00
780;DHT22;373;49.342;8.146;2023-03-01T04:50:34;1.00;1.00
780;DHT22;373;49.342;8.146;2023-03-01T04:53:02;1.00;1.00
780;DHT22;373;49.342;8.146;2023-03-01T04:55:29;1.00;1.00
780;DHT22;373;49.342;8.146;2023-03-01T04:57:58;1.00;1.00
780;DHT22;373;49.342;8.146;2023-03-01T05:00:26;1.00;1.00
780;DHT22;373;49.342;8.146;2023-03-01T05:02:54;0.90;1.00
780;DHT22;373;49.342;8.146;2023-03-01T05:05:24;0.90;1.00
780;DHT22;373;49.342;8.146;2023-03-01T05:07:55;0.90;1.00
780;DHT22;373;49.342;8.146;2023-03-01T05:10:23;0.80;1.00
780;DHT22;373;49.342;8.146;2023-03-01T05:12:51;0.80;1.00
780;DHT22;373;49.342;8.146;2023-03-01T05:15:20;0.80;1.00
780;DHT22;373;49.342;8.146;2023-03-01T05:17:51;0.70;1.00
780;DHT22;373;49.342;8.146;2023-03-01T05:20:18;0.70;1.00
780;DHT22;373;49.342;8.146;2023-03-01T05:22:48;0.70;1.00
780;DHT22;373;49.342;8.146;2023-03-01T05:25:16;0.70;11.10
780;DHT22;373;49.342;8.146;2023-03-01T05:27:43;0.70;99.90
780;DHT22;373;49.342;8.146;2023-03-01T05:30:11;0.80;1.00
780;DHT22;373;49.342;8.146;2023-03-01T05:32:43;0.80;1.00
780;DHT22;373;49.342;8.146;2023-03-01T05:35:11;0.70;49.20
780;DHT22;373;49.342;8.146;2023-03-01T05:37:43;0.70;3.90
780;DHT22;373;49.342;8.146;2023-03-01T05:40:12;0.70;99.90
780;DHT22;373;49.342;8.146;2023-03-01T05:42:43;0.80;1.00
780;DHT22;373;49.342;8.146;2023-03-01T05:45:11;0.80;1.00
780;DHT22;373;49.342;8.146;2023-03-01T05:47:39;0.80;1.00
780;DHT22;373;49.342;8.146;2023-03-01T05:50:13;0.80;26.80
780;DHT22;373;49.342;8.146;2023-03-01T05:52:43;0.70;99.90
780;DHT22;373;49.342;8.146;2023-03-01T05:55:10;0.80;99.90
780;DHT22;373;49.342;8.146;2023-03-01T05:57:38;0.70;75.90
780;DHT22;373;49.342;8.146;2023-03-01T06:00:06;0.60;99.90
780;DHT22;373;49.342;8.146;2023-03-01T06:02:38;0.60;99.90
780;DHT22;373;49.342;8.146;2023-03-01T06:05:07;0.60;99.90
780;DHT22;373;49.342;8.146;2023-03-01T06:07:36;0.70;99.90
780;DHT22;373;49.342;8.146;2023-03-01T06:10:04;0.70;99.90
780;DHT22;373;49.342;8.146;2023-03-01T06:12:32;0.70;70.00
780;DHT22;373;49.342;8.146;2023-03-01T06:14:59;0.70;85.70
780;DHT22;373;49.342;8.146;2023-03-01T06:17:29;0.90;5.40
780;DHT22;373;49.342;8.146;2023-03-01T06:19:56;0.90;99.90
780;DHT22;373;49.342;8.146;2023-03-01T06:22:23;1.00;99.90
780;DHT22;373;49.342;8.146;2023-03-01T06:24:52;0.90;1.00
780;DHT22;373;49.342;8.146;2023-03-01T06:27:19;0.90;1.00
780;DHT22;373;49.342;8.146;2023-03-01T06:29:46;0.90;1.00
780;DHT22;373;49.342;8.146;2023-03-01T06:32:14;1.00;1.00
780;DHT22;373;49.342;8.146;2023-03-01T06:34:41;1.10;1.00
780;DHT22;373;49.342;8.146;2023-03-01T06:37:08;1.10;1.00
780;DHT22;373;49.342;8.146;2023-03-01T06:39:35;1.20;1.00
780;DHT22;373;49.342;8.146;2023-03-01T06:42:04;1.40;1.00
780;DHT22;373;49.342;8.146;2023-03-01T06:44:31;1.30;1.00
780;DHT22;373;49.342;8.146;2023-03-01T06:46:59;1.50;1.00
780;DHT22;373;49.342;8.146;2023-03-01T06:49:26;1.60;1.00
780;DHT22;373;49.342;8.146;2023-03-01T06:51:53;1.70;1.00
780;DHT22;373;49.342;8.146;2023-03-01T06:54:20;1.90;1.00
780;DHT22;373;49.342;8.146;2023-03-01T06:56:48;2.00;1.00
780;DHT22;373;49.342;8.146;2023-03-01T06:59:17;1.90;1.00
780;DHT22;373;49.342;8.146;2023-03-01T07:01:44;1.70;1.00
780;DHT22;373;49.342;8.146;2023-03-01T07:04:12;1.60;1.00
780;DHT22;373;49.342;8.146;2023-03-01T07:06:40;1.70;1.00
780;DHT22;373;49.342;8.146;2023-03-01T07:09:07;1.80;1.00
780;DHT22;373;49.342;8.146;2023-03-01T07:11:34;2.10;1.00
780;DHT22;373;49.342;8.146;2023-03-01T07:14:01;2.30;99.90
780;DHT22;373;49.342;8.146;2023-03-01T07:16:30;2.40;99.90
780;DHT22;373;49.342;8.146;2023-03-01T07:18:57;2.40;99.90
780;DHT22;373;49.342;8.146;2023-03-01T07:21:24;2.10;99.90
780;DHT22;373;49.342;8.146;2023-03-01T07:23:51;2.10;99.90
780;DHT22;373;49.342;8.146;2023-03-01T07:26:18;2.20;99.90
780;DHT22;373;49.342;8.146;2023-03-01T07:28:45;2.10;99.90
780;DHT22;373;49.342;8.146;2023-03-01T07:31:12;2.50;99.90
780;DHT22;373;49.342;8.146;2023-03-01T07:33:42;2.70;99.90
780;DHT22;373;49.342;8.146;2023-03-01T07:36:09;3.10;99.90
780;DHT22;373;49.342;8.146;2023-03-01T07:38:36;3.50;99.90
780;DHT22;373;49.342;8.146;2023-03-01T07:41:04;3.60;99.90
780;DHT22;373;49.342;8.146;2023-03-01T07:43:31;3.90;99.90
780;DHT22;373;49.342;8.146;2023-03-01T07:45:59;4.30;99.90
780;DHT22;373;49.342;8.146;2023-03-01T07:48:27;4.40;99.90
780;DHT22;373;49.342;8.146;2023-03-01T07:50:57;4.30;99.90
780;DHT22;373;49.342;8.146;2023-03-01T07:53:24;4.00;99.90
780;DHT22;373;49.342;8.146;2023-03-01T07:56:00;4.10;99.90
780;DHT22;373;49.342;8.146;2023-03-01T07:58:27;4.20;99.90
780;DHT22;373;49.342;8.146;2023-03-01T08:00:54;4.30;99.90
780;DHT22;373;49.342;8.146;2023-03-01T08:03:21;4.60;99.90
780;DHT22;373;49.342;8.146;2023-03-01T08:05:48;4.80;99.90
780;DHT22;373;49.342;8.146;2023-03-01T08:08:17;5.00;99.90
780;DHT22;373;49.342;8.146;2023-03-01T08:10:44;5.40;99.90
780;DHT22;373;49.342;8.146;2023-03-01T08:13:11;4.70;99.90
780;DHT22;373;49.342;8.146;2023-03-01T08:15:38;4.80;99.90
780;DHT22;373;49.342;8.146;2023-03-01T08:18:05;4.70;99.90
780;DHT22;373;49.342;8.146;2023-03-01T08:20:32;5.20;99.90
780;DHT22;373;49.342;8.146;2023-03-01T08:22:59;5.40;99.90
780;DHT22;373;49.342;8.146;2023-03-01T08:25:28;5.80;99.90
780;DHT22;373;49.342;8.146;2023-03-01T08:27:55;5.90;99.90
780;DHT22;373;49.342;8.146;2023-03-01T08:30:22;6.20;99.90
780;DHT22;373;49.342;8.146;2023-03-01T08:32:50;5.90;99.90
780;DHT22;373;49.342;8.146;2023-03-01T08:35:17;5.60;99.90
780;DHT22;373;49.342;8.146;2023-03-01T08:37:45;5.60;99.90
780;DHT22;373;49.342;8.146;2023-03-01T08:40:13;5.80;99.90
780;DHT22;373;49.342;8.146;2023-03-01T08:42:41;6.00;99.90
780;DHT22;373;49.342;8.146;2023-03-01T08:45:10;6.50;99.90
780;DHT22;373;49.342;8.146;2023-03-01T08:47:38;6.60;99.90
780;DHT22;373;49.342;8.146;2023-03-01T08:50:06;6.70;99.90
780;DHT22;373;49.342;8.146;2023-03-01T08:52:33;6.30;97.50
780;DHT22;373;49.342;8.146;2023-03-01T08:55:00;6.40;99.90
780;DHT22;373;49.342;8.146;2023-03-01T08:57:28;5.90;99.90
780;DHT22;373;49.342;8.146;2023-03-01T08:59:56;6.00;99.80
780;DHT22;373;49.342;8.146;2023-03-01T09:02:23;6.20;99.90
780;DHT22;373;49.342;8.146;2023-03-01T09:04:50;7.20;99.20
780;DHT22;373;49.342;8.146;2023-03-01T09:07:17;7.30;93.50
780;DHT22;373;49.342;8.146;2023-03-01T09:09:45;6.10;91.40
780;DHT22;373;49.342;8.146;2023-03-01T09:12:12;6.90;95.80
780;DHT22;373;49.342;8.146;2023-03-01T09:14:39;7.50;92.00
780;DHT22;373;49.342;8.146;2023-03-01T09:17:08;7.30;89.00
780;DHT22;373;49.342;8.146;2023-03-01T09:19:35;7.50;85.20
780;DHT22;373;49.342;8.146;2023-03-01T09:22:03;8.10;83.80
780;DHT22;373;49.342;8.146;2023-03-01T09:24:30;7.90;72.80
780;DHT22;373;49.342;8.146;2023-03-01T09:26:57;7.80;72.70
780;DHT22;373;49.342;8.146;2023-03-01T09:29:24;7.70;69.50
780;DHT22;373;49.342;8.146;2023-03-01T09:31:51;7.90;70.90
780;DHT22;373;49.342;8.146;2023-03-01T09:34:22;8.10;67.50
780;DHT22;373;49.342;8.146;2023-03-01T09:36:50;7.20;64.00
780;DHT22;373;49.342;8.146;2023-03-01T09:39:17;6.80;63.30
780;DHT22;373;49.342;8.146;2023-03-01T09:41:57;7.10;67.00
780;DHT22;373;49.342;8.146;2023-03-01T09:44:31;7.50;65.40
780;DHT22;373;49.342;8.146;2023-03-01T09:47:00;7.90;63.90
780;DHT22;373;49.342;8.146;2023-03-01T09:49:31;7.80;60.00
780;DHT22;373;49.342;8.146;2023-03-01T09:52:03;7.90;58.70
780;DHT22;373;49.342;8.146;2023-03-01T09:54:36;8.50;57.40
780;DHT22;373;49.342;8.146;2023-03-01T09:57:11;8.80;53.50
780;DHT22;373;49.342;8.146;2023-03-01T09:59:49;8.80;51.60
780;DHT22;373;49.342;8.146;2023-03-01T10:02:27;8.80;49.80
780;DHT22;373;49.342;8.146;2023-03-01T10:05:05;9.00;42.70
780;DHT22;373;49.342;8.146;2023-03-01T10:07:44;9.10;39.10
780;DHT22;373;49.342;8.146;2023-03-01T10:10:21;8.60;35.90
780;DHT22;373;49.342;8.146;2023-03-01T10:12:50;8.60;37.60
780;DHT22;373;49.342;8.146;2023-03-01T10:15:22;8.20;35.90
780;DHT22;373;49.342;8.146;2023-03-01T10:17:55;8.60;38.30
780;DHT22;373;49.342;8.146;2023-03-01T10:20:28;9.10;38.10
780;DHT22;373;49.342;8.146;2023-03-01T10:22:56;9.30;36.00
780;DHT22;373;49.342;8.146;2023-03-01T10:25:37;9.50;35.60
780;DHT22;373;49.342;8.146;2023-03-01T10:28:17;9.90;32.80
780;DHT22;373;49.342;8.146;2023-03-01T10:30:44;10.00;29.20
780;DHT22;373;49.342;8.146;2023-03-01T10:33:16;9.50;28.10
780;DHT22;373;49.342;8.146;2023-03-01T10:35:46;9.50;27.70
780;DHT22;373;49.342;8.146;2023-03-01T10:38:16;10.00;28.50
780;DHT22;373;49.342;8.146;2023-03-01T10:40:52;9.50;25.90
780;DHT22;373;49.342;8.146;2023-03-01T10:43:20;9.40;25.70
780;DHT22;373;49.342;8.146;2023-03-01T10:45:48;9.20;26.10
780;DHT22;373;49.342;8.146;2023-03-01T10:48:17;10.10;28.40
780;DHT22;373;49.342;8.146;2023-03-01T10:50:48;10.00;24.50
780;DHT22;373;49.342;8.146;2023-03-01T10:53:27;11.10;26.60
780;DHT22;373;49.342;8.146;2023-03-01T10:56:00;11.00;22.70
780;DHT22;373;49.342;8.146;2023-03-01T10:58:28;11.00;22.30
780;DHT22;373;49.342;8.146;2023-03-01T11:00:57;11.10;21.80
780;DHT22;373;49.342;8.146;2023-03-01T11:03:26;11.10;19.70
780;DHT22;373;49.342;8.146;2023-03-01T11:06:00;11.00;18.10
780;DHT22;373;49.342;8.146;2023-03-01T11:08:36;11.40;19.50
780;DHT22;373;49.342;8.146;2023-03-01T11:11:07;10.90;25.30
780;DHT22;373;49.342;8.146;2023-03-01T11:13:50;11.80;19.10
780;DHT22;373;49.342;8.146;2023-03-01T11:16:27;12.20;18.20
780;DHT22;373;49.342;8.146;2023-03-01T11:19:01;12.50;17.70
780;DHT22;373;49.342;8.146;2023-03-01T11:21:33;11.90;14.80
780;DHT22;373;49.342;8.146;2023-03-01T11:24:03;11.70;14.00
780;DHT22;373;49.342;8.146;2023-03-01T11:26:35;11.30;13.10
780;DHT22;373;49.342;8.146;2023-03-01T11:29:07;11.30;13.20
780;DHT22;373;49.342;8.146;2023-03-01T11:31:40;11.50;12.90
780;DHT22;373;49.342;8.146;2023-03-01T11:34:12;11.10;11.30
780;DHT22;373;49.342;8.146;2023-03-01T11:36:48;11.90;13.20
780;DHT22;373;49.342;8.146;2023-03-01T11:39:24;12.80;13.70
780;DHT22;373;49.342;8.146;2023-03-01T11:42:02;13.10;12.00
780;DHT22;373;49.342;8.146;2023-03-01T11:44:35;12.20;8.60
780;DHT22;373;49.342;8.146;2023-03-01T11:47:15;12.10;8.00
780;DHT22;373;49.342;8.146;2023-03-01T11:50:07;11.20;5.70
780;DHT22;373;49.342;8.146;2023-03-01T11:52:51;10.90;5.30
780;DHT22;373;49.342;8.146;2023-03-01T11:55:36;11.70;8.10
780;DHT22;373;49.342;8.146;2023-03-01T11:58:41;12.10;8.00
780;DHT22;373;49.342;8.146;2023-03-01T12:01:24;12.50;7.40
780;DHT22;373;49.342;8.146;2023-03-01T12:04:11;11.80;4.70
780;DHT22;373;49.342;8.146;2023-03-01T12:06:59;10.70;2.10
780;DHT22;373;49.342;8.146;2023-03-01T12:09:38;10.20;1.50
780;DHT22;373;49.342;8.146;2023-03-01T12:12:27;9.50;1.90
780;DHT22;373;49.342;8.146;2023-03-01T12:15:13;9.40;2.90
780;DHT22;373;49.342;8.146;2023-03-01T12:17:56;9.20;2.30
780;DHT22;373;49.342;8.146;2023-03-01T12:20:30;9.00;2.90
780;DHT22;373;49.342;8.146;2023-03-01T12:23:15;8.90;3.40
780;DHT22;373;49.342;8.146;2023-03-01T12:25:53;8.70;3.70
780;DHT22;373;49.342;8.146;2023-03-01T12:28:45;9.00;4.70
780;DHT22;373;49.342;8.146;2023-03-01T12:31:37;8.60;3.40
780;DHT22;373;49.342;8.146;2023-03-01T12:34:22;9.00;5.20
780;DHT22;373;49.342;8.146;2023-03-01T12:37:15;8.30;2.70
780;DHT22;373;49.342;8.146;2023-03-01T12:39:53;8.50;4.60
780;DHT22;373;49.342;8.146;2023-03-01T12:42:29;8.80;5.50
780;DHT22;373;49.342;8.146;2023-03-01T12:45:26;8.80;5.20
780;DHT22;373;49.342;8.146;2023-03-01T12:48:08;8.40;4.70
780;DHT22;373;49.342;8.146;2023-03-01T12:50:42;8.50;5.00
780;DHT22;373;49.342;8.146;2023-03-01T12:53:20;8.40;5.00
780;DHT22;373;49.342;8.146;2023-03-01T12:55:49;8.40;6.00
780;DHT22;373;49.342;8.146;2023-03-01T12:58:24;8.70;6.80
780;DHT22;373;49.342;8.146;2023-03-01T13:01:03;9.00;7.20
780;DHT22;373;49.342;8.146;2023-03-01T13:03:54;8.90;5.90
780;DHT22;373;49.342;8.146;2023-03-01T13:06:27;8.70;5.20
780;DHT22;373;49.342;8.146;2023-03-01T13:09:01;8.90;5.70
780;DHT22;373;49.342;8.146;2023-03-01T13:11:30;8.90;5.70
780;DHT22;373;49.342;8.146;2023-03-01T13:17:00;8.80;5.80
780;DHT22;373;49.342;8.146;2023-03-01T13:19:28;8.50;5.50
780;DHT22;373;49.342;8.146;2023-03-01T13:21:57;8.40;5.00
780;DHT22;373;49.342;8.146;2023-03-01T13:24:26;8.50;5.40
780;DHT22;373;49.342;8.146;2023-03-01T13:27:18;8.80;6.20
780;DHT22;373;49.342;8.146;2023-03-01T13:29:49;8.80;6.10
780;DHT22;373;49.342;8.146;2023-03-01T13:32:22;9.10;7.00
780;DHT22;373;49.342;8.146;2023-03-01T13:34:51;9.20;6.40
780;DHT22;373;49.342;8.146;2023-03-01T13:37:24;9.10;5.50
780;DHT22;373;49.342;8.146;2023-03-01T13:39:56;8.70;4.10
780;DHT22;373;49.342;8.146;2023-03-01T13:42:42;8.90;13.40
780;DHT22;373;49.342;8.146;2023-03-01T13:45:24;9.10;6.40
780;DHT22;373;49.342;8.146;2023-03-01T13:47:59;8.90;12.50
780;DHT22;373;49.342;8.146;2023-03-01T13:50:30;8.90;4.90
780;DHT22;373;49.342;8.146;2023-03-01T13:53:03;8.90;4.80
780;DHT22;373;49.342;8.146;2023-03-01T13:55:37;8.90;5.40
780;DHT22;373;49.342;8.146;2023-03-01T13:58:12;8.90;6.20
780;DHT22;373;49.342;8.146;2023-03-01T14:00:41;8.90;4.30
780;DHT22;373;49.342;8.146;2023-03-01T14:03:13;8.50;3.30
780;DHT22;373;49.342;8.146;2023-03-01T14:05:42;8.50;3.50
780;DHT22;373;49.342;8.146;2023-03-01T14:08:23;8.70;4.40
780;DHT22;373;49.342;8.146;2023-03-01T14:11:06;8.80;4.20
780;DHT22;373;49.342;8.146;2023-03-01T14:13:46;9.00;4.80
780;DHT22;373;49.342;8.146;2023-03-01T14:16:24;8.70;3.70
780;DHT22;373;49.342;8.146;2023-03-01T14:19:07;8.70;3.40
780;DHT22;373;49.342;8.146;2023-03-01T14:21:36;8.80;3.60
780;DHT22;373;49.342;8.146;2023-03-01T14:24:03;8.70;3.90
780;DHT22;373;49.342;8.146;2023-03-01T14:26:31;8.70;3.10
780;DHT22;373;49.342;8.146;2023-03-01T14:29:00;8.70;3.30
780;DHT22;373;49.342;8.146;2023-03-01T14:31:36;8.90;3.90
780;DHT22;373;49.342;8.146;2023-03-01T14:34:06;9.10;3.70
780;DHT22;373;49.342;8.146;2023-03-01T14:36:34;9.00;3.00
780;DHT22;373;49.342;8.146;2023-03-01T14:39:02;8.80;2.60
780;DHT22;373;49.342;8.146;2023-03-01T14:41:42;8.90;3.10
780;DHT22;373;49.342;8.146;2023-03-01T14:44:15;8.90;3.90
780;DHT22;373;49.342;8.146;2023-03-01T14:46:45;8.90;3.20
780;DHT22;373;49.342;8.146;2023-03-01T14:49:15;8.80;2.90
780;DHT22;373;49.342;8.146;2023-03-01T14:51:49;8.70;3.00
780;DHT22;373;49.342;8.146;2023-03-01T14:54:23;8.80;3.00
780;DHT22;373;49.342;8.146;2023-03-01T14:56:53;8.70;2.30
780;DHT22;373;49.342;8.146;2023-03-01T14:59:22;8.80;2.70
780;DHT22;373;49.342;8.146;2023-03-01T15:01:50;8.90;2.90
780;DHT22;373;49.342;8.146;2023-03-01T15:04:19;9.10;11.20
780;DHT22;373;49.342;8.146;2023-03-01T15:06:50;8.80;1.60
780;DHT22;373;49.342;8.146;2023-03-01T15:09:19;8.80;2.20
780;DHT22;373;49.342;8.146;2023-03-01T15:11:46;8.80;1.70
780;DHT22;373;49.342;8.146;2023-03-01T15:14:39;8.90;2.20
780;DHT22;373;49.342;8.146;2023-03-01T15:17:21;8.90;2.00
780;DHT22;373;49.342;8.146;2023-03-01T15:19:52;8.80;1.70
780;DHT22;373;49.342;8.146;2023-03-01T15:22:19;8.70;1.60
780;DHT22;373;49.342;8.146;2023-03-01T15:24:49;8.80;2.20
780;DHT22;373;49.342;8.146;2023-03-01T15:27:17;8.80;2.10
780;DHT22;373;49.342;8.146;2023-03-01T15:29:50;9.00;1.90
780;DHT22;373;49.342;8.146;2023-03-01T15:32:29;8.90;1.90
780;DHT22;373;49.342;8.146;2023-03-01T15:34:58;8.80;2.00
780;DHT22;373;49.342;8.146;2023-03-01T15:37:40;8.90;2.00
780;DHT22;373;49.342;8.146;2023-03-01T15:40:22;8.80;1.20
780;DHT22;373;49.342;8.146;2023-03-01T15:42:57;8.90;2.40
780;DHT22;373;49.342;8.146;2023-03-01T15:45:27;8.80;2.10
780;DHT22;373;49.342;8.146;2023-03-01T15:47:56;8.70;1.50
780;DHT22;373;49.342;8.146;2023-03-01T15:50:27;8.80;1.80
780;DHT22;373;49.342;8.146;2023-03-01T15:52:56;8.90;2.00
780;DHT22;373;49.342;8.146;2023-03-01T15:55:26;8.80;1.40
780;DHT22;373;49.342;8.146;2023-03-01T15:57:59;8.90;1.40
780;DHT22;373;49.342;8.146;2023-03-01T16:00:27;9.00;9.50
780;DHT22;373;49.342;8.146;2023-03-01T16:02:55;8.80;1.70
780;DHT22;373;49.342;8.146;2023-03-01T16:05:24;8.70;1.00
780;DHT22;373;49.342;8.146;2023-03-01T16:07:53;8.70;1.00
780;DHT22;373;49.342;8.146;2023-03-01T16:10:21;8.70;1.30
780;DHT22;373;49.342;8.146;2023-03-01T16:12:48;8.70;1.00
780;DHT22;373;49.342;8.146;2023-03-01T16:15:20;8.60;1.00
780;DHT22;373;49.342;8.146;2023-03-01T16:17:47;8.60;1.00
780;DHT22;373;49.342;8.146;2023-03-01T16:20:21;8.70;1.30
780;DHT22;373;49.342;8.146;2023-03-01T16:22:49;8.70;1.70
780;DHT22;373;49.342;8.146;2023-03-01T16:25:19;8.80;2.10
780;DHT22;373;49.342;8.146;2023-03-01T16:27:48;8.80;2.70
780;DHT22;373;49.342;8.146;2023-03-01T16:30:18;8.90;2.80
780;DHT22;373;49.342;8.146;2023-03-01T16:32:47;8.70;10.10
780;DHT22;373;49.342;8.146;2023-03-01T16:35:16;8.60;2.50
780;DHT22;373;49.342;8.146;2023-03-01T16:37:44;8.50;2.10
780;DHT22;373;49.342;8.146;2023-03-01T16:40:18;8.50;3.20
780;DHT22;373;49.342;8.146;2023-03-01T16:42:46;8.50;3.40
780;DHT22;373;49.342;8.146;2023-03-01T16:45:14;8.50;3.40
780;DHT22;373;49.342;8.146;2023-03-01T16:47:41;8.60;3.80
780;DHT22;373;49.342;8.146;2023-03-01T16:50:09;8.60;3.90
780;DHT22;373;49.342;8.146;2023-03-01T16:52:36;8.40;3.00
780;DHT22;373;49.342;8.146;2023-03-01T16:55:05;8.10;2.90
780;DHT22;373;49.342;8.146;2023-03-01T16:57:35;8.00;2.70
780;DHT22;373;49.342;8.146;2023-03-01T17:00:03;7.90;2.80
780;DHT22;373;49.342;8.146;2023-03-01T17:02:33;7.70;2.80
780;DHT22;373;49.342;8.146;2023-03-01T17:05:00;7.70;3.20
780;DHT22;373;49.342;8.146;2023-03-01T17:07:28;7.70;3.20
780;DHT22;373;49.342;8.146;2023-03-01T17:09:59;7.60;3.80
780;DHT22;373;49.342;8.146;2023-03-01T17:12:26;7.60;3.80
780;DHT22;373;49.342;8.146;2023-03-01T17:14:54;7.50;3.40
780;DHT22;373;49.342;8.146;2023-03-01T17:17:21;7.60;3.30
780;DHT22;373;49.342;8.146;2023-03-01T17:19:48;7.50;3.40
780;DHT22;373;49.342;8.146;2023-03-01T17:22:16;7.40;3.40
780;DHT22;373;49.342;8.146;2023-03-01T17:24:43;7.30;4.00
780;DHT22;373;49.342;8.146;2023-03-01T17:27:11;7.30;4.40